M/V Taku — WI9491 — position and weather

sailwx.info

Track history (hours):
 
Tides and Currents Weather Stations Pressure Air Temp Water Temp Dewpoint Dewpoint Depression Visibility Wind Speed Wind Dir Waves Ship Positions

M/V Taku

Owner: ALASKA, STATE OF, ANCHORAGE, AK. More information available from US FCC via Universal Licensing System and Coast Guard Vessel Documentation Center.

Last reported at 2014-Sep-29 18:00 UTC. Time now 2014-Oct-02 02:27 UTC.
Position N 54°42' W 133°48'.

Type: Ship. MMSI: 338697000.

Wind from 999 at 4 knots

Barometer 1006.4 mb
Air temperature 10.0 ° C
Visibility: greater than 5.4 NM

Date/timePositionNaut miles runAvg speedWind from/ knotsBaromVisibWave heightAir tempDewpointWater temp
2014-Sep-29 18:00N 54°42' W 133°48'   999 / 41006.4 5.4 10.0
2014-Sep-27 09:06N 54°18' W 130°21'  
2014-Sep-24 18:00N 57°48' W 133°48'23210.8 340 / 151001.0 5.4 0.511.1
2014-Sep-23 20:29N 54°22' W 130°36'10 8.8
2014-Sep-23 19:21N 54°16' W 130°22'1 1.8
2014-Sep-23 18:32N 54°18' W 130°21'0 0.0
2014-Sep-23 17:32N 54°18' W 130°21'0 0.0
2014-Sep-23 16:32N 54°18' W 130°21'1 0.8
2014-Sep-23 15:33N 54°17' W 130°22'  
2014-Sep-20 13:30N 54°22' W 130°36'10 9.6
2014-Sep-20 12:28N 54°17' W 130°22'1 1.4
2014-Sep-20 11:31N 54°18' W 130°21'0 0.0
2014-Sep-20 10:31N 54°18' W 130°21'1 0.6
2014-Sep-20 09:33N 54°17' W 130°22'  
Track history (hours):
 
Tides and Currents Weather Stations Pressure Air Temp Water Temp Dewpoint Dewpoint Depression Visibility Wind Speed Wind Dir Waves Ship Positions

M/V Taku

Owner: ALASKA, STATE OF, ANCHORAGE, AK. More information available from US FCC via Universal Licensing System and Coast Guard Vessel Documentation Center.

Last reported at 2014-Sep-29 18:00 UTC. Time now 2014-Oct-02 02:27 UTC.
Position N 54°42' W 133°48'.

Type: Ship. MMSI: 338697000.

Wind from 999 at 4 knots

Barometer 1006.4 mb
Air temperature 10.0 ° C
Visibility: greater than 5.4 NM

Date/timePositionNaut miles runAvg speedWind from/ knotsBaromVisibWave heightAir tempDewpointWater temp
2014-Sep-29 18:00N 54°42' W 133°48'   999 / 41006.4 5.4 10.0
2014-Sep-27 09:06N 54°18' W 130°21'  
2014-Sep-24 18:00N 57°48' W 133°48'23210.8 340 / 151001.0 5.4 0.511.1
2014-Sep-23 20:29N 54°22' W 130°36'10 8.8
2014-Sep-23 19:21N 54°16' W 130°22'1 1.8
2014-Sep-23 18:32N 54°18' W 130°21'0 0.0
2014-Sep-23 17:32N 54°18' W 130°21'0 0.0
2014-Sep-23 16:32N 54°18' W 130°21'1 0.8
2014-Sep-23 15:33N 54°17' W 130°22'  
2014-Sep-20 13:30N 54°22' W 130°36'10 9.6
2014-Sep-20 12:28N 54°17' W 130°22'1 1.4
2014-Sep-20 11:31N 54°18' W 130°21'0 0.0
2014-Sep-20 10:31N 54°18' W 130°21'1 0.6
2014-Sep-20 09:33N 54°17' W 130°22'  

Dump ship's entire track history